Terminal Aerodrome Forecast
Issued by NWS Jackson, MS

Home | Current Version | Previous Version | Text Only | Print | Product List | Glossary On
Versions: 1 2 3 4 5 6 7 8 9 10 11 12 13 14 15 16 17 18
000
FTUS44 KJAN 300520
TAFJAN
TAF
KJAN 300520Z 3006/3106 16006KT P6SM FEW020 SCT030 BKN150
     FM300900 17006KT 6SM BR VCSH SCT008 BKN018 OVC100
     FM301430 17008KT P6SM SCT025 BKN040 BKN150
     FM301900 19010KT 5SM -TSRA SCT025 BKN035CB OVC100
     FM302300 20006KT 6SM -SHRA VCTS SCT030 BKN050CB BKN150=

USA.gov is the U.S. government's official web portal to all federal, state and local government web resources and services.